sensor_id;sensor_type;location;lat;lon;timestamp;pressure;altitude;pressure_sealevel;temperature;humidity
3590;BME280;1809;48.470;9.226;2023-04-03T00:02:07;32537.59;;;3.96;100.00
3590;BME280;1809;48.470;9.226;2023-04-03T00:04:33;36533.00;;;4.05;100.00
3590;BME280;1809;48.470;9.226;2023-04-03T00:06:58;34203.41;;;4.03;100.00
3590;BME280;1809;48.470;9.226;2023-04-03T00:09:23;34874.41;;;4.14;100.00
3590;BME280;1809;48.470;9.226;2023-04-03T00:11:49;28227.34;;;4.12;100.00
3590;BME280;1809;48.470;9.226;2023-04-03T00:14:14;23910.78;;;4.02;100.00
3590;BME280;1809;48.470;9.226;2023-04-03T00:16:40;21924.03;;;4.06;100.00
3590;BME280;1809;48.470;9.226;2023-04-03T00:19:05;18944.19;;;4.08;100.00
3590;BME280;1809;48.470;9.226;2023-04-03T00:21:30;20930.91;;;4.08;100.00
3590;BME280;1809;48.470;9.226;2023-04-03T00:23:56;21595.13;;;4.13;100.00
3590;BME280;1809;48.470;9.226;2023-04-03T00:26:22;19605.22;;;4.05;100.00
3590;BME280;1809;48.470;9.226;2023-04-03T00:28:47;21591.72;;;4.03;100.00
3590;BME280;1809;48.470;9.226;2023-04-03T00:31:15;22916.31;;;4.01;100.00
3590;BME280;1809;48.470;9.226;2023-04-03T00:33:41;24899.25;;;3.86;100.00
3590;BME280;1809;48.470;9.226;2023-04-03T00:36:08;26231.53;;;4.01;100.00
3590;BME280;1809;48.470;9.226;2023-04-03T00:38:34;25570.63;;;4.07;100.00
3590;BME280;1809;48.470;9.226;2023-04-03T00:41:00;27899.38;;;4.21;100.00
3590;BME280;1809;48.470;9.226;2023-04-03T00:43:25;25245.00;;;4.22;100.00
3590;BME280;1809;48.470;9.226;2023-04-03T00:45:57;14644.16;;;4.10;100.00
3590;BME280;1809;48.470;9.226;2023-04-03T00:48:27;16961.03;;;4.17;100.00
3590;BME280;1809;48.470;9.226;2023-04-03T00:50:55;17291.00;;;4.14;100.00
3590;BME280;1809;48.470;9.226;2023-04-03T00:53:33;20270.16;;;4.13;100.00
3590;BME280;1809;48.470;9.226;2023-04-03T00:56:01;18944.94;;;4.11;100.00
3590;BME280;1809;48.470;9.226;2023-04-03T00:58:37;20273.03;;;4.22;100.00
3590;BME280;1809;48.470;9.226;2023-04-03T01:01:08;20271.25;;;4.17;100.00
3590;BME280;1809;48.470;9.226;2023-04-03T01:03:36;18948.22;;;4.22;100.00
3590;BME280;1809;48.470;9.226;2023-04-03T01:06:02;15969.06;;;4.19;100.00
3590;BME280;1809;48.470;9.226;2023-04-03T01:08:28;15966.84;;;4.10;100.00
3590;BME280;1809;48.470;9.226;2023-04-03T01:10:53;14972.22;;;3.99;100.00
3590;BME280;1809;48.470;9.226;2023-04-03T01:13:28;17288.56;;;4.05;100.00
3590;BME280;1809;48.470;9.226;2023-04-03T01:15:53;18943.59;;;4.06;100.00
3590;BME280;1809;48.470;9.226;2023-04-03T01:18:20;19936.78;;;4.06;100.00
3590;BME280;1809;48.470;9.226;2023-04-03T01:23:49;17289.63;;;4.09;100.00
3590;BME280;1809;48.470;9.226;2023-04-03T01:26:17;14644.03;;;4.10;100.00
3590;BME280;1809;48.470;9.226;2023-04-03T01:28:43;13651.56;;;4.06;100.00
3590;BME280;1809;48.470;9.226;2023-04-03T01:31:48;12328.50;;;3.98;100.00
3590;BME280;1809;48.470;9.226;2023-04-03T01:34:05;17613.78;;;3.84;100.00
3590;BME280;1809;48.470;9.226;2023-04-03T01:36:31;23242.16;;;3.86;100.00
3590;BME280;1809;48.470;9.226;2023-04-03T01:38:59;26223.19;;;3.80;100.00
3590;BME280;1809;48.470;9.226;2023-04-03T01:41:25;30541.41;;;3.90;100.00
3590;BME280;1809;48.470;9.226;2023-04-03T01:43:51;28210.00;;;3.73;100.00
3590;BME280;1809;48.470;9.226;2023-04-03T01:46:17;28876.34;;;3.79;100.00
3590;BME280;1809;48.470;9.226;2023-04-03T01:48:43;32192.91;;;3.72;100.00
3590;BME280;1809;48.470;9.226;2023-04-03T01:51:09;31860.53;;;3.71;100.00
3590;BME280;1809;48.470;9.226;2023-04-03T01:53:34;34851.69;;;3.73;100.00
3590;BME280;1809;48.470;9.226;2023-04-03T01:56:00;34851.13;;;3.72;100.00
3590;BME280;1809;48.470;9.226;2023-04-03T01:58:25;32523.75;;;3.69;100.00
3590;BME280;1809;48.470;9.226;2023-04-03T02:00:51;33189.75;;;3.72;100.00
3590;BME280;1809;48.470;9.226;2023-04-03T02:03:16;32855.94;;;3.69;100.00
3590;BME280;1809;48.470;9.226;2023-04-03T02:05:42;33188.69;;;3.70;100.00
3590;BME280;1809;48.470;9.226;2023-04-03T02:08:07;33184.16;;;3.62;100.00
3590;BME280;1809;48.470;9.226;2023-04-03T02:10:33;34847.47;;;3.65;100.00
3590;BME280;1809;48.470;9.226;2023-04-03T02:12:58;37509.34;;;3.68;100.00
3590;BME280;1809;48.470;9.226;2023-04-03T02:15:24;33184.97;;;3.63;100.00
3590;BME280;1809;48.470;9.226;2023-04-03T02:17:49;27537.75;;;3.53;100.00
3590;BME280;1809;48.470;9.226;2023-04-03T02:20:15;30194.09;;;3.58;100.00
3590;BME280;1809;48.470;9.226;2023-04-03T02:22:41;29194.66;;;3.50;100.00
3590;BME280;1809;48.470;9.226;2023-04-03T02:25:07;33179.38;;;3.53;100.00
3590;BME280;1809;48.470;9.226;2023-04-03T02:27:32;36173.44;;;3.59;100.00
3590;BME280;1809;48.470;9.226;2023-04-03T02:29:58;34842.16;;;3.56;100.00
3590;BME280;1809;48.470;9.226;2023-04-03T02:32:26;32845.94;;;3.50;100.00
3590;BME280;1809;48.470;9.226;2023-04-03T02:34:52;31183.63;;;3.46;100.00
3590;BME280;1809;48.470;9.226;2023-04-03T02:37:17;32845.66;;;3.50;100.00
3590;BME280;1809;48.470;9.226;2023-04-03T02:39:43;27865.81;;;3.45;100.00
3590;BME280;1809;48.470;9.226;2023-04-03T02:42:09;24553.13;;;3.48;100.00
3590;BME280;1809;48.470;9.226;2023-04-03T02:44:35;22235.66;;;3.50;100.00
3590;BME280;1809;48.470;9.226;2023-04-03T02:47:01;21571.63;;;3.44;100.00
3590;BME280;1809;48.470;9.226;2023-04-03T02:49:31;21239.03;;;3.39;100.00
3590;BME280;1809;48.470;9.226;2023-04-03T02:51:56;24217.47;;;3.37;100.00
3590;BME280;1809;48.470;9.226;2023-04-03T02:54:22;28524.91;;;3.36;100.00
3590;BME280;1809;48.470;9.226;2023-04-03T02:56:49;30182.03;;;3.33;100.00
3590;BME280;1809;48.470;9.226;2023-04-03T02:59:16;31177.38;;;3.33;100.00
3590;BME280;1809;48.470;9.226;2023-04-03T03:01:41;34499.88;;;3.38;100.00
3590;BME280;1809;48.470;9.226;2023-04-03T03:04:07;37156.63;;;3.35;100.00
3590;BME280;1809;48.470;9.226;2023-04-03T03:06:32;39822.97;;;3.44;100.00
3590;BME280;1809;48.470;9.226;2023-04-03T03:08:58;38491.00;;;3.42;100.00
3590;BME280;1809;48.470;9.226;2023-04-03T03:11:24;37817.28;;;3.28;100.00
3590;BME280;1809;48.470;9.226;2023-04-03T03:13:53;41815.97;;;3.38;100.00
3590;BME280;1809;48.470;9.226;2023-04-03T03:16:19;41816.66;;;3.39;100.00
3590;BME280;1809;48.470;9.226;2023-04-03T03:18:45;41150.91;;;3.39;100.00
3590;BME280;1809;48.470;9.226;2023-04-03T03:21:11;42153.34;;;3.44;100.00
3590;BME280;1809;48.470;9.226;2023-04-03T03:23:36;41821.06;;;3.45;100.00
3590;BME280;1809;48.470;9.226;2023-04-03T03:26:05;40814.44;;;3.33;100.00
3590;BME280;1809;48.470;9.226;2023-04-03T03:28:31;40814.09;;;3.33;100.00
3590;BME280;1809;48.470;9.226;2023-04-03T03:30:58;40484.59;;;3.38;100.00
3590;BME280;1809;48.470;9.226;2023-04-03T03:33:24;37827.06;;;3.44;100.00
3590;BME280;1809;48.470;9.226;2023-04-03T03:35:52;33829.03;;;3.25;100.00
3590;BME280;1809;48.470;9.226;2023-04-03T03:38:18;39149.31;;;3.31;100.00
3590;BME280;1809;48.470;9.226;2023-04-03T03:40:43;40808.81;;;3.24;100.00
3590;BME280;1809;48.470;9.226;2023-04-03T03:43:09;40809.16;;;3.25;100.00
3590;BME280;1809;48.470;9.226;2023-04-03T03:45:34;40476.09;;;3.24;100.00
3590;BME280;1809;48.470;9.226;2023-04-03T03:48:01;39143.63;;;3.21;100.00
3590;BME280;1809;48.470;9.226;2023-04-03T03:50:27;37157.53;;;3.36;100.00
3590;BME280;1809;48.470;9.226;2023-04-03T03:52:53;35492.56;;;3.31;100.00
3590;BME280;1809;48.470;9.226;2023-04-03T03:55:18;31840.09;;;3.31;100.00
3590;BME280;1809;48.470;9.226;2023-04-03T03:57:46;31173.38;;;3.25;100.00
3590;BME280;1809;48.470;9.226;2023-04-03T04:00:12;29845.53;;;3.23;100.00
3590;BME280;1809;48.470;9.226;2023-04-03T04:02:38;-1841.38;;;3.36;100.00
3590;BME280;1809;48.470;9.226;2023-04-03T04:05:04;-16265.09;;;3.45;100.00
3590;BME280;1809;48.470;9.226;2023-04-03T04:07:30;-16264.25;;;3.42;100.00
3590;BME280;1809;48.470;9.226;2023-04-03T04:09:55;-16263.97;;;3.41;100.00
3590;BME280;1809;48.470;9.226;2023-04-03T04:12:21;-16264.53;;;3.43;100.00
3590;BME280;1809;48.470;9.226;2023-04-03T04:14:46;-16264.81;;;3.44;100.00
3590;BME280;1809;48.470;9.226;2023-04-03T04:17:13;-16267.34;;;3.53;100.00
3590;BME280;1809;48.470;9.226;2023-04-03T04:19:38;-16265.22;;;3.45;100.00
3590;BME280;1809;48.470;9.226;2023-04-03T04:22:03;-16266.78;;;3.51;100.00
3590;BME280;1809;48.470;9.226;2023-04-03T04:24:29;-16266.50;;;3.50;100.00
3590;BME280;1809;48.470;9.226;2023-04-03T04:26:54;-16267.63;;;3.54;100.00
3590;BME280;1809;48.470;9.226;2023-04-03T04:29:20;-16266.22;;;3.49;100.00
3590;BME280;1809;48.470;9.226;2023-04-03T04:31:45;-16267.63;;;3.54;100.00
3590;BME280;1809;48.470;9.226;2023-04-03T04:34:11;-16268.47;;;3.57;100.00
3590;BME280;1809;48.470;9.226;2023-04-03T04:36:38;-16267.47;;;3.53;100.00
3590;BME280;1809;48.470;9.226;2023-04-03T04:39:03;-16267.06;;;3.52;100.00
3590;BME280;1809;48.470;9.226;2023-04-03T04:41:29;-16266.50;;;3.50;100.00
3590;BME280;1809;48.470;9.226;2023-04-03T04:43:54;-16267.06;;;3.52;100.00
3590;BME280;1809;48.470;9.226;2023-04-03T04:46:20;-16265.66;;;3.47;100.00
3590;BME280;1809;48.470;9.226;2023-04-03T04:48:45;-16264.25;;;3.42;100.00
3590;BME280;1809;48.470;9.226;2023-04-03T04:51:11;-16267.47;;;3.53;100.00
3590;BME280;1809;48.470;9.226;2023-04-03T04:53:37;-16267.34;;;3.53;100.00
3590;BME280;1809;48.470;9.226;2023-04-03T04:56:02;-16267.06;;;3.52;100.00
3590;BME280;1809;48.470;9.226;2023-04-03T04:58:28;-16267.06;;;3.52;100.00
3590;BME280;1809;48.470;9.226;2023-04-03T05:01:06;-16267.75;;;3.54;100.00
3590;BME280;1809;48.470;9.226;2023-04-03T05:03:32;-16269.03;;;3.59;100.00
3590;BME280;1809;48.470;9.226;2023-04-03T05:05:58;-16263.81;;;3.40;100.00
3590;BME280;1809;48.470;9.226;2023-04-03T05:08:24;-16265.09;;;3.45;100.00
3590;BME280;1809;48.470;9.226;2023-04-03T05:10:50;-16265.94;;;3.48;100.00
3590;BME280;1809;48.470;9.226;2023-04-03T05:13:15;-16266.34;;;3.49;100.00
3590;BME280;1809;48.470;9.226;2023-04-03T05:15:41;-16264.94;;;3.44;100.00
3590;BME280;1809;48.470;9.226;2023-04-03T05:18:06;-16265.78;;;3.47;100.00
3590;BME280;1809;48.470;9.226;2023-04-03T05:20:33;-16267.19;;;3.52;100.00
3590;BME280;1809;48.470;9.226;2023-04-03T05:22:58;-16267.06;;;3.52;100.00
3590;BME280;1809;48.470;9.226;2023-04-03T05:25:24;-16265.09;;;3.45;100.00
3590;BME280;1809;48.470;9.226;2023-04-03T05:27:49;-16266.50;;;3.50;100.00
3590;BME280;1809;48.470;9.226;2023-04-03T05:30:15;-16266.50;;;3.50;100.00
3590;BME280;1809;48.470;9.226;2023-04-03T05:32:41;-16269.59;;;3.61;100.00
3590;BME280;1809;48.470;9.226;2023-04-03T05:35:06;-16267.34;;;3.53;100.00
3590;BME280;1809;48.470;9.226;2023-04-03T05:37:32;-16268.31;;;3.56;100.00
3590;BME280;1809;48.470;9.226;2023-04-03T05:39:58;-16270.56;;;3.64;100.00
3590;BME280;1809;48.470;9.226;2023-04-03T05:42:23;-16268.47;;;3.57;100.00
3590;BME280;1809;48.470;9.226;2023-04-03T05:44:48;-16269.59;;;3.61;100.00
3590;BME280;1809;48.470;9.226;2023-04-03T05:47:15;-16269.16;;;3.59;100.00
3590;BME280;1809;48.470;9.226;2023-04-03T05:49:41;-16271.41;;;3.67;100.00
3590;BME280;1809;48.470;9.226;2023-04-03T05:52:27;-16272.97;;;3.73;100.00
3590;BME280;1809;48.470;9.226;2023-04-03T05:54:53;-16273.53;;;3.75;100.00
3590;BME280;1809;48.470;9.226;2023-04-03T05:57:19;-16271.41;;;3.67;100.00
3590;BME280;1809;48.470;9.226;2023-04-03T05:59:45;-16273.81;;;3.76;100.00
3590;BME280;1809;48.470;9.226;2023-04-03T06:02:12;-16274.53;;;3.78;100.00
3590;BME280;1809;48.470;9.226;2023-04-03T06:04:38;-16276.22;;;3.85;100.00
3590;BME280;1809;48.470;9.226;2023-04-03T06:07:04;-16276.06;;;3.84;100.00
3590;BME280;1809;48.470;9.226;2023-04-03T06:09:29;-16275.50;;;3.82;100.00
3590;BME280;1809;48.470;9.226;2023-04-03T06:11:55;-16277.75;;;3.90;100.00
3590;BME280;1809;48.470;9.226;2023-04-03T06:14:21;-16277.75;;;3.90;100.00
3590;BME280;1809;48.470;9.226;2023-04-03T06:16:46;-16277.63;;;3.90;100.00
3590;BME280;1809;48.470;9.226;2023-04-03T06:19:12;-16280.16;;;3.99;100.00
3590;BME280;1809;48.470;9.226;2023-04-03T06:21:38;-16281.84;;;4.05;100.00
3590;BME280;1809;48.470;9.226;2023-04-03T06:24:04;-16280.44;;;4.00;100.00
3590;BME280;1809;48.470;9.226;2023-04-03T06:26:30;-16287.19;;;4.24;100.00
3590;BME280;1809;48.470;9.226;2023-04-03T06:28:55;-16286.78;;;4.22;100.00
3590;BME280;1809;48.470;9.226;2023-04-03T06:31:21;-16284.94;;;4.16;100.00
3590;BME280;1809;48.470;9.226;2023-04-03T06:33:46;-16286.06;;;4.20;100.00
3590;BME280;1809;48.470;9.226;2023-04-03T06:36:12;-16290.44;;;4.36;100.00
3590;BME280;1809;48.470;9.226;2023-04-03T06:38:38;-16292.69;;;4.44;100.00
3590;BME280;1809;48.470;9.226;2023-04-03T06:41:03;-16290.84;;;4.37;100.00
3590;BME280;1809;48.470;9.226;2023-04-03T06:43:29;-16290.16;;;4.34;100.00
3590;BME280;1809;48.470;9.226;2023-04-03T06:45:56;-16295.50;;;4.54;100.00
3590;BME280;1809;48.470;9.226;2023-04-03T06:48:21;-16293.53;;;4.47;100.00
3590;BME280;1809;48.470;9.226;2023-04-03T06:50:47;-16292.53;;;4.43;100.00
3590;BME280;1809;48.470;9.226;2023-04-03T06:53:12;-16291.56;;;4.40;100.00
3590;BME280;1809;48.470;9.226;2023-04-03T06:55:37;-16291.69;;;4.40;100.00
3590;BME280;1809;48.470;9.226;2023-04-03T06:58:03;-16294.94;;;4.52;100.00
3590;BME280;1809;48.470;9.226;2023-04-03T07:00:29;-16298.03;;;4.63;100.00
3590;BME280;1809;48.470;9.226;2023-04-03T07:02:55;-16298.03;;;4.63;100.00
3590;BME280;1809;48.470;9.226;2023-04-03T07:05:22;-16295.50;;;4.54;100.00
3590;BME280;1809;48.470;9.226;2023-04-03T07:07:48;-16299.72;;;4.69;100.00
3590;BME280;1809;48.470;9.226;2023-04-03T07:10:15;-16308.31;;;5.00;100.00
3590;BME280;1809;48.470;9.226;2023-04-03T07:12:40;-16310.41;;;5.07;100.00
3590;BME280;1809;48.470;9.226;2023-04-03T07:15:06;-16314.91;;;5.23;100.00
3590;BME280;1809;48.470;9.226;2023-04-03T07:17:32;-16314.91;;;5.23;100.00
3590;BME280;1809;48.470;9.226;2023-04-03T07:20:03;-16317.88;;;5.34;100.00
3590;BME280;1809;48.470;9.226;2023-04-03T07:22:32;-16323.09;;;5.53;100.00
3590;BME280;1809;48.470;9.226;2023-04-03T07:24:58;-16313.22;;;5.17;100.00
3590;BME280;1809;48.470;9.226;2023-04-03T07:27:26;-16312.53;;;5.15;100.00
3590;BME280;1809;48.470;9.226;2023-04-03T07:29:52;-16307.31;;;4.96;100.00
3590;BME280;1809;48.470;9.226;2023-04-03T07:32:18;-16308.88;;;5.02;100.00
3590;BME280;1809;48.470;9.226;2023-04-03T07:34:44;-16313.22;;;5.17;100.00
3590;BME280;1809;48.470;9.226;2023-04-03T07:37:10;-16313.22;;;5.17;100.00
3590;BME280;1809;48.470;9.226;2023-04-03T07:39:36;-16315.19;;;5.24;100.00
3590;BME280;1809;48.470;9.226;2023-04-03T07:42:02;-16315.34;;;5.25;100.00
3590;BME280;1809;48.470;9.226;2023-04-03T07:44:27;-16316.88;;;5.30;100.00
3590;BME280;1809;48.470;9.226;2023-04-03T07:46:53;-16314.34;;;5.21;100.00
3590;BME280;1809;48.470;9.226;2023-04-03T07:49:20;-16314.91;;;5.23;100.00
3590;BME280;1809;48.470;9.226;2023-04-03T07:51:48;-16317.59;;;5.33;100.00
3590;BME280;1809;48.470;9.226;2023-04-03T07:54:14;-16319.28;;;5.39;100.00
3590;BME280;1809;48.470;9.226;2023-04-03T07:56:40;-16319.56;;;5.40;100.00
3590;BME280;1809;48.470;9.226;2023-04-03T07:59:08;-16325.34;;;5.61;100.00
3590;BME280;1809;48.470;9.226;2023-04-03T08:01:34;-16328.44;;;5.72;100.00
3590;BME280;1809;48.470;9.226;2023-04-03T08:04:03;-16319.56;;;5.40;100.00
3590;BME280;1809;48.470;9.226;2023-04-03T08:06:30;-16322.78;;;5.52;100.00
3590;BME280;1809;48.470;9.226;2023-04-03T08:08:58;-16326.75;;;5.66;100.00
3590;BME280;1809;48.470;9.226;2023-04-03T08:11:24;-16329.84;;;5.77;100.00
3590;BME280;1809;48.470;9.226;2023-04-03T08:13:51;-16326.88;;;5.66;100.00
3590;BME280;1809;48.470;9.226;2023-04-03T08:16:20;-16329.28;;;5.75;100.00
3590;BME280;1809;48.470;9.226;2023-04-03T08:18:46;-16334.34;;;5.93;100.00
3590;BME280;1809;48.470;9.226;2023-04-03T08:21:14;-16336.31;;;6.00;100.00
3590;BME280;1809;48.470;9.226;2023-04-03T08:23:40;-16334.34;;;5.93;100.00
3590;BME280;1809;48.470;9.226;2023-04-03T08:26:15;-16337.00;;;6.03;100.00
3590;BME280;1809;48.470;9.226;2023-04-03T08:28:44;-16325.19;;;5.60;100.00
3590;BME280;1809;48.470;9.226;2023-04-03T08:31:18;-16334.19;;;5.92;100.00
3590;BME280;1809;48.470;9.226;2023-04-03T08:33:45;-16329.56;;;5.76;100.00
3590;BME280;1809;48.470;9.226;2023-04-03T08:36:22;-16329.84;;;5.77;100.00
3590;BME280;1809;48.470;9.226;2023-04-03T08:38:49;-16336.59;;;6.01;100.00
3590;BME280;1809;48.470;9.226;2023-04-03T08:46:27;-16337.16;;;6.03;100.00
3590;BME280;1809;48.470;9.226;2023-04-03T08:49:00;-16342.63;;;6.23;100.00
3590;BME280;1809;48.470;9.226;2023-04-03T08:51:26;-16332.09;;;5.85;100.00
3590;BME280;1809;48.470;9.226;2023-04-03T08:54:01;-16336.03;;;5.99;100.00
3590;BME280;1809;48.470;9.226;2023-04-03T08:56:31;-16328.16;;;5.71;100.00
3590;BME280;1809;48.470;9.226;2023-04-03T08:59:03;-16334.34;;;5.93;100.00
3590;BME280;1809;48.470;9.226;2023-04-03T09:01:36;-16334.91;;;5.95;100.00
3590;BME280;1809;48.470;9.226;2023-04-03T09:04:10;-16340.25;;;6.14;100.00
3590;BME280;1809;48.470;9.226;2023-04-03T09:06:38;-16336.03;;;5.99;100.00
3590;BME280;1809;48.470;9.226;2023-04-03T09:09:14;-16334.19;;;5.92;100.00
3590;BME280;1809;48.470;9.226;2023-04-03T09:12:09;-16343.34;;;6.25;100.00
3590;BME280;1809;48.470;9.226;2023-04-03T09:14:57;-16339.84;;;6.13;100.00
3590;BME280;1809;48.470;9.226;2023-04-03T09:22:45;-16349.53;;;6.47;100.00
3590;BME280;1809;48.470;9.226;2023-04-03T09:25:27;-16349.53;;;6.47;100.00
3590;BME280;1809;48.470;9.226;2023-04-03T09:27:53;-16348.97;;;6.45;100.00
3590;BME280;1809;48.470;9.226;2023-04-03T09:30:24;-16341.94;;;6.20;100.00
3590;BME280;1809;48.470;9.226;2023-04-03T09:32:55;-16344.63;;;6.30;100.00
3590;BME280;1809;48.470;9.226;2023-04-03T09:35:29;-16343.91;;;6.27;100.00
3590;BME280;1809;48.470;9.226;2023-04-03T09:40:41;-16349.81;;;6.48;100.00
3590;BME280;1809;48.470;9.226;2023-04-03T09:43:22;-16360.94;;;6.88;100.00
3590;BME280;1809;48.470;9.226;2023-04-03T09:45:49;-16362.34;;;6.93;100.00
3590;BME280;1809;48.470;9.226;2023-04-03T09:48:21;-16358.81;;;6.81;100.00
3590;BME280;1809;48.470;9.226;2023-04-03T09:53:42;-16342.63;;;6.23;100.00
3590;BME280;1809;48.470;9.226;2023-04-03T09:58:44;-16345.31;;;6.32;100.00
3590;BME280;1809;48.470;9.226;2023-04-03T10:01:30;-16343.47;;;6.26;100.00
3590;BME280;1809;48.470;9.226;2023-04-03T10:04:07;-16345.19;;;6.32;100.00
3590;BME280;1809;48.470;9.226;2023-04-03T10:06:37;-16357.13;;;6.75;100.00
3590;BME280;1809;48.470;9.226;2023-04-03T10:12:02;-16352.63;;;6.59;100.00
3590;BME280;1809;48.470;9.226;2023-04-03T10:17:37;-16354.31;;;6.65;100.00
3590;BME280;1809;48.470;9.226;2023-04-03T10:26:32;-16357.97;;;6.78;100.00
3590;BME280;1809;48.470;9.226;2023-04-03T10:29:15;-16365.84;;;7.06;100.00
3590;BME280;1809;48.470;9.226;2023-04-03T10:34:24;-16354.59;;;6.66;100.00
3590;BME280;1809;48.470;9.226;2023-04-03T10:39:51;-16348.00;;;6.42;100.00
3590;BME280;1809;48.470;9.226;2023-04-03T10:42:35;-16345.19;;;6.32;100.00
3590;BME280;1809;48.470;9.226;2023-04-03T10:45:19;-16342.50;;;6.22;100.00
3590;BME280;1809;48.470;9.226;2023-04-03T10:48:07;-16348.00;;;6.42;100.00
3590;BME280;1809;48.470;9.226;2023-04-03T10:50:51;-16347.56;;;6.40;100.00
3590;BME280;1809;48.470;9.226;2023-04-03T10:56:03;-16345.31;;;6.32;100.00
3590;BME280;1809;48.470;9.226;2023-04-03T10:58:44;-16343.78;;;6.27;100.00
3590;BME280;1809;48.470;9.226;2023-04-03T11:01:17;-16344.47;;;6.29;100.00
3590;BME280;1809;48.470;9.226;2023-04-03T11:03:47;-16341.09;;;6.17;100.00
3590;BME280;1809;48.470;9.226;2023-04-03T11:06:16;-16342.78;;;6.23;100.00
3590;BME280;1809;48.470;9.226;2023-04-03T11:11:34;-16345.59;;;6.33;100.00
3590;BME280;1809;48.470;9.226;2023-04-03T11:14:09;-16352.78;;;6.59;100.00
3590;BME280;1809;48.470;9.226;2023-04-03T11:16:47;-16348.84;;;6.45;100.00
3590;BME280;1809;48.470;9.226;2023-04-03T11:19:34;-16351.78;;;6.56;100.00
3590;BME280;1809;48.470;9.226;2023-04-03T11:22:20;-16348.69;;;6.44;100.00
3590;BME280;1809;48.470;9.226;2023-04-03T11:25:03;-16343.63;;;6.26;100.00
3590;BME280;1809;48.470;9.226;2023-04-03T11:27:35;-16341.09;;;6.17;100.00
3590;BME280;1809;48.470;9.226;2023-04-03T11:30:07;-16332.09;;;5.85;100.00
3590;BME280;1809;48.470;9.226;2023-04-03T11:35:36;-16341.94;;;6.20;100.00
3590;BME280;1809;48.470;9.226;2023-04-03T11:38:04;-16340.81;;;6.16;100.00
3590;BME280;1809;48.470;9.226;2023-04-03T11:40:34;-16341.94;;;6.20;100.00
3590;BME280;1809;48.470;9.226;2023-04-03T11:43:23;-16335.75;;;5.98;100.00
3590;BME280;1809;48.470;9.226;2023-04-03T11:46:04;-16336.31;;;6.00;100.00
3590;BME280;1809;48.470;9.226;2023-04-03T11:50:59;-16341.09;;;6.17;100.00
3590;BME280;1809;48.470;9.226;2023-04-03T11:55:55;-16344.47;;;6.29;100.00
3590;BME280;1809;48.470;9.226;2023-04-03T11:58:31;-16343.06;;;6.24;100.00
3590;BME280;1809;48.470;9.226;2023-04-03T12:01:08;-16345.31;;;6.32;100.00
3590;BME280;1809;48.470;9.226;2023-04-03T12:16:30;-16365.28;;;7.04;100.00
3590;BME280;1809;48.470;9.226;2023-04-03T12:19:00;-16368.09;;;7.14;100.00
3590;BME280;1809;48.470;9.226;2023-04-03T12:41:18;-16353.47;;;6.62;100.00
3590;BME280;1809;48.470;9.226;2023-04-03T12:48:58;-16360.22;;;6.86;100.00
3590;BME280;1809;48.470;9.226;2023-04-03T12:51:34;-16360.50;;;6.87;100.00
3590;BME280;1809;48.470;9.226;2023-04-03T12:56:42;-16359.25;;;6.82;100.00
3590;BME280;1809;48.470;9.226;2023-04-03T12:59:22;-16357.41;;;6.76;100.00
3590;BME280;1809;48.470;9.226;2023-04-03T13:01:59;-16357.41;;;6.76;100.00
3590;BME280;1809;48.470;9.226;2023-04-03T13:04:27;-16362.75;;;6.95;100.00
3590;BME280;1809;48.470;9.226;2023-04-03T13:06:53;-16371.06;;;7.25;100.00
3590;BME280;1809;48.470;9.226;2023-04-03T13:09:24;-16356.56;;;6.73;100.00
3590;BME280;1809;48.470;9.226;2023-04-03T13:12:03;-16350.38;;;6.51;100.00
3590;BME280;1809;48.470;9.226;2023-04-03T13:14:30;-16347.72;;;6.41;100.00
3590;BME280;1809;48.470;9.226;2023-04-03T13:17:03;-16352.63;;;6.59;100.00
3590;BME280;1809;48.470;9.226;2023-04-03T13:19:30;-16350.66;;;6.52;100.00
3590;BME280;1809;48.470;9.226;2023-04-03T13:22:04;-16358.53;;;6.80;100.00
3590;BME280;1809;48.470;9.226;2023-04-03T13:24:33;-16360.78;;;6.88;100.00
3590;BME280;1809;48.470;9.226;2023-04-03T13:27:00;-16356.16;;;6.71;100.00
3590;BME280;1809;48.470;9.226;2023-04-03T13:29:29;-16350.38;;;6.51;100.00
3590;BME280;1809;48.470;9.226;2023-04-03T13:31:56;-16352.50;;;6.58;100.00
3590;BME280;1809;48.470;9.226;2023-04-03T13:34:25;-16354.03;;;6.64;100.00
3590;BME280;1809;48.470;9.226;2023-04-03T13:41:47;-16345.88;;;6.34;100.00
3590;BME280;1809;48.470;9.226;2023-04-03T13:44:16;-16344.75;;;6.30;100.00
3590;BME280;1809;48.470;9.226;2023-04-03T13:46:43;-16347.56;;;6.40;100.00
3590;BME280;1809;48.470;9.226;2023-04-03T13:51:48;-16343.34;;;6.25;100.00
3590;BME280;1809;48.470;9.226;2023-04-03T13:54:29;-16346.31;;;6.36;100.00
3590;BME280;1809;48.470;9.226;2023-04-03T13:56:56;-16350.66;;;6.52;100.00
3590;BME280;1809;48.470;9.226;2023-04-03T14:04:25;-16347.56;;;6.40;100.00
3590;BME280;1809;48.470;9.226;2023-04-03T14:06:51;-16345.88;;;6.34;100.00
3590;BME280;1809;48.470;9.226;2023-04-03T14:09:18;-16350.66;;;6.52;100.00
3590;BME280;1809;48.470;9.226;2023-04-03T14:11:45;-16358.69;;;6.80;100.00
3590;BME280;1809;48.470;9.226;2023-04-03T14:14:20;-16365.72;;;7.06;100.00
3590;BME280;1809;48.470;9.226;2023-04-03T14:16:51;-16368.38;;;7.15;100.00
3590;BME280;1809;48.470;9.226;2023-04-03T14:19:31;-16369.09;;;7.18;100.00
3590;BME280;1809;48.470;9.226;2023-04-03T14:21:59;-16367.25;;;7.11;100.00
3590;BME280;1809;48.470;9.226;2023-04-03T14:24:25;-16368.09;;;7.14;100.00
3590;BME280;1809;48.470;9.226;2023-04-03T14:26:53;-16362.19;;;6.93;100.00
3590;BME280;1809;48.470;9.226;2023-04-03T14:29:20;-16362.47;;;6.94;100.00
3590;BME280;1809;48.470;9.226;2023-04-03T14:31:49;-16362.75;;;6.95;100.00
3590;BME280;1809;48.470;9.226;2023-04-03T14:34:15;-16364.72;;;7.02;100.00
3590;BME280;1809;48.470;9.226;2023-04-03T14:36:42;-16363.59;;;6.98;100.00
3590;BME280;1809;48.470;9.226;2023-04-03T14:39:11;-16365.28;;;7.04;100.00
3590;BME280;1809;48.470;9.226;2023-04-03T14:41:42;-16372.59;;;7.30;100.00
3590;BME280;1809;48.470;9.226;2023-04-03T14:44:07;-16375.28;;;7.40;100.00
3590;BME280;1809;48.470;9.226;2023-04-03T14:46:36;-16370.34;;;7.22;100.00
3590;BME280;1809;48.470;9.226;2023-04-03T14:49:03;-16369.22;;;7.18;100.00
3590;BME280;1809;48.470;9.226;2023-04-03T14:51:33;-16368.66;;;7.16;100.00
3590;BME280;1809;48.470;9.226;2023-04-03T14:53:59;-16367.25;;;7.11;100.00
3590;BME280;1809;48.470;9.226;2023-04-03T14:56:28;-16374.28;;;7.36;100.00
3590;BME280;1809;48.470;9.226;2023-04-03T14:58:57;-16375.28;;;7.40;100.00
3590;BME280;1809;48.470;9.226;2023-04-03T15:01:23;-16373.72;;;7.34;100.00
3590;BME280;1809;48.470;9.226;2023-04-03T15:03:48;-16371.75;;;7.27;100.00
3590;BME280;1809;48.470;9.226;2023-04-03T15:06:15;-16361.91;;;6.92;100.00
3590;BME280;1809;48.470;9.226;2023-04-03T15:08:42;-16360.50;;;6.87;100.00